»·PEaware :: N261MG KBIL-KBOI

N261MG :: KBIL-KBOI

FLIGHT INFORMATION

Flight Status: Arrived
Operator: Privately registered:
United States
More flights under this callsign
Pilot: Marty O. (15602)
Aircraft: ECLIPSE 500
(EA50)
More flights by this aircraft type
Origin: KBIL Billings Logan Intl
United States
Destination: KBOI Boise Air Terminal/Gowen
United States
More flights between these airports :: More routes between these airports
Route: BIL DNL BOI
File this flight plan on PilotEdge
Remarks:
Altitude:
(Current/Filed)
28,000ft
Speed:
(Current/Filed)
340kts
Departed: 25-Mar-20 08:33 PM
Arrived: 25-Mar-20 09:49 PM
Distance/Time
Traveled:
354nm/1:16
Distance/Time
To Go:
Arrived

Flight Plot

Page will automatically refresh every two minutes.


Map Options




Map Legend


Flown Route
Filed Route
Departure Airport
Arrival Airport
Navaid (VOR, NDB)
Fix

Horizontal Profiles

Position Reports

Time Latitude Longitude Heading Altitude Ground
Speed
25-Mar-20 20:13 45.804447 -108.551897 90 3654ft 0kts
25-Mar-20 20:14 45.804447 -108.551897 90 3654ft 0kts
25-Mar-20 20:15 45.804447 -108.551897 90 3654ft 0kts
25-Mar-20 20:16 45.804447 -108.551897 90 3654ft 0kts
25-Mar-20 20:17 45.804447 -108.551897 90 3654ft 0kts
25-Mar-20 20:18 45.804447 -108.551897 90 3654ft 0kts
25-Mar-20 20:19 45.804447 -108.551897 90 3654ft 0kts
25-Mar-20 20:20 45.804447 -108.551897 90 3654ft 0kts
25-Mar-20 20:21 45.804447 -108.551897 90 3654ft 0kts
25-Mar-20 20:22 45.804447 -108.551897 90 3654ft 0kts
25-Mar-20 20:23 45.804447 -108.551897 90 3654ft 0kts
25-Mar-20 20:24 45.804447 -108.551897 90 3654ft 0kts
25-Mar-20 20:25 45.804447 -108.551897 90 3654ft 0kts
25-Mar-20 20:26 45.804447 -108.551897 90 3654ft 0kts
25-Mar-20 20:27 45.804447 -108.551896 90 3654ft 0kts
25-Mar-20 20:28 45.805316 -108.552227 7 3654ft 2kts
25-Mar-20 20:29 45.805974 -108.552705 11 3654ft 0kts
25-Mar-20 20:30 45.806090 -108.552671 11 3654ft 0kts
25-Mar-20 20:31 45.806267 -108.552630 356 3654ft 4kts
25-Mar-20 20:32 45.813727 -108.583355 292 4048ft 154kts
25-Mar-20 20:33 45.831507 -108.647862 292 6475ft 185kts
25-Mar-20 20:34 45.824261 -108.714971 241 9150ft 185kts
25-Mar-20 20:35 45.804836 -108.783864 248 11647ft 189kts
25-Mar-20 20:36 45.786690 -108.854312 248 13993ft 189kts
25-Mar-20 20:37 45.768767 -108.923578 248 16255ft 183kts
25-Mar-20 20:38 45.751331 -108.990497 248 18339ft 176kts
25-Mar-20 20:39 45.734441 -109.055058 249 20231ft 170kts
25-Mar-20 20:40 45.718084 -109.117528 250 21908ft 168kts
25-Mar-20 20:41 45.701621 -109.180312 251 23388ft 170kts
25-Mar-20 20:42 45.685032 -109.243539 251 24759ft 171kts
25-Mar-20 20:43 45.668209 -109.307440 251 26034ft 173kts
25-Mar-20 20:44 45.651416 -109.371051 251 27266ft 171kts
25-Mar-20 20:45 45.633801 -109.437573 250 27854ft 199kts
25-Mar-20 20:46 45.611614 -109.521101 250 27847ft 249kts
25-Mar-20 20:47 45.585150 -109.620259 250 27836ft 283kts
25-Mar-20 20:48 45.555773 -109.729847 249 27839ft 307kts
25-Mar-20 20:49 45.526337 -109.839213 249 27838ft 321kts
25-Mar-20 20:50 45.498324 -109.942779 249 27836ft 329kts
25-Mar-20 20:51 45.467411 -110.056590 249 27835ft 334kts
25-Mar-20 20:52 45.433658 -110.180232 249 27833ft 337kts
25-Mar-20 20:53 45.399477 -110.304776 249 27832ft 339kts
25-Mar-20 20:54 45.365043 -110.429611 249 27830ft 339kts
25-Mar-20 20:55 45.330358 -110.554699 249 27829ft 340kts
25-Mar-20 20:56 45.295613 -110.679379 249 27839ft 340kts
25-Mar-20 20:57 45.260580 -110.804436 249 27850ft 341kts
25-Mar-20 20:58 45.225391 -110.929389 249 27845ft 342kts
25-Mar-20 20:59 45.189853 -111.054973 249 27832ft 344kts
25-Mar-20 21:00 45.153933 -111.181261 249 27830ft 348kts
25-Mar-20 21:01 45.117464 -111.308809 249 27857ft 349kts
25-Mar-20 21:02 45.080961 -111.435810 249 27864ft 349kts
25-Mar-20 21:03 45.044447 -111.562219 249 27866ft 345kts
25-Mar-20 21:04 45.008342 -111.686553 248 27881ft 339kts
25-Mar-20 21:05 44.975860 -111.797908 248 27881ft 335kts
25-Mar-20 21:06 44.940667 -111.918105 247 27887ft 329kts
25-Mar-20 21:07 44.905728 -112.036619 247 27885ft 326kts
25-Mar-20 21:08 44.870883 -112.154380 247 27879ft 325kts
25-Mar-20 21:09 44.835919 -112.272026 247 27855ft 325kts
25-Mar-20 21:10 44.800773 -112.389686 247 27841ft 325kts
25-Mar-20 21:11 44.765743 -112.506423 247 27839ft 324kts
25-Mar-20 21:12 44.730588 -112.623115 247 27838ft 324kts
25-Mar-20 21:13 44.695270 -112.739735 247 27849ft 324kts
25-Mar-20 21:14 44.659738 -112.856456 247 27846ft 326kts
25-Mar-20 21:15 44.623674 -112.974392 248 27845ft 331kts
25-Mar-20 21:16 44.587031 -113.093829 248 27856ft 338kts
25-Mar-20 21:17 44.549517 -113.215470 248 27897ft 341kts
25-Mar-20 21:18 44.511628 -113.337748 248 27918ft 344kts
25-Mar-20 21:19 44.473332 -113.460732 248 27897ft 346kts
25-Mar-20 21:20 44.434799 -113.583888 248 27884ft 346kts
25-Mar-20 21:21 44.395873 -113.707691 247 27892ft 347kts
25-Mar-20 21:22 44.356995 -113.830787 247 27891ft 348kts
25-Mar-20 21:23 44.318306 -113.952710 247 28659ft 328kts
25-Mar-20 21:24 44.279559 -114.074183 247 27615ft 357kts
25-Mar-20 21:25 44.239018 -114.200705 248 26207ft 358kts
25-Mar-20 21:26 44.198521 -114.326522 248 24878ft 354kts
25-Mar-20 21:27 44.158276 -114.450968 248 23596ft 351kts
25-Mar-20 21:28 44.120107 -114.568429 248 22361ft 326kts
25-Mar-20 21:29 44.082489 -114.683731 248 21327ft 327kts
25-Mar-20 21:30 44.045168 -114.797611 248 19942ft 322kts
25-Mar-20 21:31 44.007914 -114.910814 248 18545ft 320kts
25-Mar-20 21:32 43.970930 -115.022783 247 17144ft 315kts
25-Mar-20 21:33 43.934776 -115.131735 246 15747ft 309kts
25-Mar-20 21:34 43.899079 -115.238801 246 14337ft 303kts
25-Mar-20 21:35 43.863791 -115.344191 246 13960ft 301kts
25-Mar-20 21:36 43.828436 -115.449424 246 13987ft 301kts
25-Mar-20 21:37 43.792901 -115.554793 246 13712ft 300kts
25-Mar-20 21:38 43.757623 -115.658998 245 12698ft 297kts
25-Mar-20 21:39 43.722665 -115.761853 245 11701ft 294kts
25-Mar-20 21:40 43.688004 -115.863421 246 10701ft 290kts
25-Mar-20 21:41 43.653064 -115.961626 231 9683ft 268kts
25-Mar-20 21:42 43.590982 -115.986526 193 8185ft 209kts
25-Mar-20 21:43 43.543443 -116.020503 233 6671ft 195kts
25-Mar-20 21:44 43.518485 -116.083171 273 5112ft 191kts
25-Mar-20 21:45 43.536661 -116.139593 301 3941ft 128kts
25-Mar-20 21:46 43.548928 -116.175364 299 3305ft 102kts
25-Mar-20 21:47 43.558248 -116.202299 299 2929ft 80kts
25-Mar-20 21:48 43.562823 -116.211796 293 2857ft 20kts
25-Mar-20 21:49 43.566658 -116.222890 295 2845ft 47kts
25-Mar-20 21:50 43.569835 -116.228931 353 2836ft 3kts
25-Mar-20 21:51 43.569842 -116.228932 353 2836ft 0kts
25-Mar-20 21:52 43.569842 -116.228932 353 2836ft 0kts
25-Mar-20 21:53 43.569842 -116.228932 353 2836ft 0kts
25-Mar-20 21:54 43.569842 -116.228932 353 2836ft 0kts
25-Mar-20 21:55 43.569842 -116.228932 353 2836ft 0kts
25-Mar-20 21:56 43.569842 -116.228932 353 2836ft 0kts
25-Mar-20 21:57 43.569842 -116.228932 353 2836ft 0kts
25-Mar-20 21:58 43.569842 -116.228932 353 2836ft 0kts

Navigation Log

Ident Type
Flight plan parsing failed, navigation log unavailable